Terminal Aerodrome Forecast
Issued by NWS

Home | Current Version | Previous Version | Text Only | Print | Product List | Glossary On
Versions: 1 2 3 4 5 6 7 8 9 10 11 12 13 14 15 16 17 18 19 20 21 22 23 24 25 26 27 28
011
FTUS43 KGRR 192249 AAB
TAFMKG
TAF AMD
KMKG 192249Z 1923/2018 14005KT 6SM BR SCT015
     FM200130 12004KT P6SM BKN008
     FM200300 10004KT 5SM BR VCSH OVC007
     FM200600 09005KT 3SM -RA BR OVC006
     FM201200 09006KT 2SM -RA BR OVC004=

USA.gov is the U.S. government's official web portal to all federal, state and local government web resources and services.